createdAt,value
2023-03-04T00:00:43.213Z,483.67
2023-03-04T00:03:12.073Z,470.33
2023-03-04T00:05:43.020Z,477.05
2023-03-04T00:08:11.746Z,508.30
2023-03-04T00:10:40.268Z,432.30
2023-03-04T00:13:08.669Z,401.42
2023-03-04T00:15:38.727Z,552.88
2023-03-04T00:18:07.363Z,512.22
2023-03-04T00:20:35.781Z,608.45
2023-03-04T00:23:04.393Z,553.33
2023-03-04T00:25:33.542Z,541.63
2023-03-04T00:28:02.531Z,400.70
2023-03-04T00:30:31.043Z,491.23
2023-03-04T00:33:00.838Z,366.13
2023-03-04T00:35:29.205Z,474.15
2023-03-04T00:37:57.722Z,505.80
2023-03-04T00:40:26.305Z,523.97
2023-03-04T00:42:54.792Z,497.92
2023-03-04T00:45:23.309Z,336.63
2023-03-04T00:47:51.839Z,396.88
2023-03-04T00:50:21.885Z,504.42
2023-03-04T00:52:50.389Z,430.52
2023-03-04T00:55:18.904Z,298.75
2023-03-04T00:57:47.281Z,362.38
2023-03-04T01:00:16.724Z,422.10
2023-03-04T01:02:45.248Z,375.40
2023-03-04T01:05:14.033Z,434.13
2023-03-04T01:07:43.889Z,344.90
2023-03-04T01:10:14.400Z,560.30
2023-03-04T01:12:43.081Z,470.88
2023-03-04T01:15:12.944Z,501.83
2023-03-04T01:17:41.627Z,488.08
2023-03-04T01:20:12.503Z,336.02
2023-03-04T01:22:40.984Z,303.70
2023-03-04T01:25:11.690Z,524.95
2023-03-04T01:27:41.254Z,337.55
2023-03-04T01:30:11.041Z,337.10
2023-03-04T01:32:39.357Z,508.73
2023-03-04T01:35:08.549Z,444.80
2023-03-04T01:37:36.884Z,326.27
2023-03-04T01:40:06.100Z,434.35
2023-03-04T01:42:36.895Z,322.92
2023-03-04T01:45:07.496Z,441.38
2023-03-04T01:47:36.954Z,345.20
2023-03-04T01:50:08.688Z,428.05
2023-03-04T01:52:37.099Z,445.58
2023-03-04T01:55:10.983Z,382.40
2023-03-04T01:57:41.394Z,506.25
2023-03-04T02:00:24.831Z,266.13
2023-03-04T02:02:55.512Z,313.23
2023-03-04T02:05:24.796Z,340.20
2023-03-04T02:07:53.875Z,307.95
2023-03-04T02:10:22.742Z,435.75
2023-03-04T02:12:53.124Z,337.50
2023-03-04T02:15:21.794Z,306.33
2023-03-04T02:20:47.119Z,180.63
2023-03-04T02:23:19.172Z,363.40
2023-03-04T02:25:50.562Z,347.50
2023-03-04T02:28:20.557Z,286.98
2023-03-04T02:30:49.181Z,412.35
2023-03-04T02:33:19.027Z,156.00
2023-03-04T02:35:48.298Z,349.63
2023-03-04T02:38:16.855Z,300.38
2023-03-04T02:40:49.484Z,193.43
2023-03-04T02:43:19.472Z,231.95
2023-03-04T02:45:49.469Z,303.35
2023-03-04T02:48:23.942Z,417.95
2023-03-04T02:50:53.809Z,275.70
2023-03-04T02:53:23.096Z,187.98
2023-03-04T02:55:51.531Z,189.35
2023-03-04T02:58:21.420Z,463.70
2023-03-04T03:00:50.125Z,315.67
2023-03-04T03:03:18.559Z,290.25
2023-03-04T03:05:47.250Z,566.22
2023-03-04T03:08:15.660Z,337.52
2023-03-04T03:10:44.182Z,277.65
2023-03-04T03:13:12.611Z,540.20
2023-03-04T03:15:42.734Z,332.00
2023-03-04T03:18:11.550Z,452.73
2023-03-04T03:20:40.042Z,607.00
2023-03-04T03:23:08.483Z,353.10
2023-03-04T03:25:36.988Z,433.45
2023-03-04T03:28:05.650Z,249.55
2023-03-04T03:30:34.117Z,512.25
2023-03-04T03:33:03.953Z,246.38
2023-03-04T03:35:32.493Z,379.80
2023-03-04T03:38:01.016Z,362.80
2023-03-04T03:40:29.446Z,269.17
2023-03-04T03:42:57.950Z,275.88
2023-03-04T03:45:26.556Z,347.02
2023-03-04T03:47:54.967Z,360.27
2023-03-04T03:50:24.833Z,495.35
2023-03-04T03:52:53.247Z,478.38
2023-03-04T03:55:21.794Z,392.08
2023-03-04T03:57:50.314Z,366.40
2023-03-04T04:00:19.468Z,284.00
2023-03-04T04:02:48.100Z,305.80
2023-03-04T04:05:16.686Z,426.05
2023-03-04T04:07:46.463Z,380.67
2023-03-04T04:10:14.876Z,304.23
2023-03-04T04:12:43.271Z,298.10
2023-03-04T04:15:13.354Z,337.98
2023-03-04T04:17:43.158Z,311.55
2023-03-04T04:20:12.627Z,347.75
2023-03-04T04:22:41.120Z,381.85
2023-03-04T04:25:11.815Z,376.25
2023-03-04T04:27:40.403Z,345.13
2023-03-04T04:30:09.963Z,336.73
2023-03-04T04:32:38.337Z,425.17
2023-03-04T04:35:07.770Z,365.75
2023-03-04T04:37:36.276Z,370.92
2023-03-04T04:40:04.861Z,361.85
2023-03-04T04:42:34.998Z,414.48
2023-03-04T04:45:03.737Z,346.08
2023-03-04T04:47:32.092Z,339.60
2023-03-04T04:50:00.425Z,420.55
2023-03-04T04:52:28.833Z,359.02
2023-03-04T04:54:57.342Z,412.70
2023-03-04T04:57:25.825Z,426.48
2023-03-04T04:59:55.612Z,447.33
2023-03-04T05:02:23.988Z,383.75
2023-03-04T05:04:52.518Z,416.65
2023-03-04T05:07:20.912Z,394.80
2023-03-04T05:09:49.266Z,388.10
2023-03-04T05:12:17.821Z,404.77
2023-03-04T05:14:46.284Z,377.08
2023-03-04T05:17:16.207Z,375.63
2023-03-04T05:19:44.608Z,423.67
2023-03-04T05:22:13.121Z,368.33
2023-03-04T05:24:41.598Z,404.40
2023-03-04T05:27:10.051Z,399.05
2023-03-04T05:29:38.457Z,426.77
2023-03-04T05:32:07.243Z,432.52
2023-03-04T05:34:37.034Z,494.10
2023-03-04T05:37:05.562Z,417.75
2023-03-04T05:39:34.253Z,498.55
2023-03-04T05:42:02.901Z,449.52
2023-03-04T05:44:31.372Z,509.70
2023-03-04T05:46:59.815Z,392.30
2023-03-04T05:49:28.594Z,459.30
2023-03-04T05:51:58.698Z,483.58
2023-03-04T05:54:27.062Z,426.63
2023-03-04T05:56:55.658Z,477.65
2023-03-04T05:59:24.112Z,504.30
2023-03-04T06:01:52.507Z,469.15
2023-03-04T06:04:21.109Z,520.67
2023-03-04T06:06:49.735Z,528.17
2023-03-04T06:09:21.069Z,562.50
2023-03-04T06:11:49.541Z,546.70
2023-03-04T06:14:18.181Z,506.02
2023-03-04T06:16:46.907Z,506.38
2023-03-04T06:19:15.285Z,541.55
2023-03-04T06:21:43.757Z,497.25
2023-03-04T06:24:12.250Z,554.83
2023-03-04T06:26:42.015Z,538.42
2023-03-04T06:29:10.537Z,594.17
2023-03-04T06:31:39.858Z,537.53
2023-03-04T06:34:08.311Z,486.75
2023-03-04T06:36:36.986Z,498.30
2023-03-04T06:39:06.088Z,542.53
2023-03-04T06:41:34.920Z,517.92
2023-03-04T06:44:04.945Z,522.30
2023-03-04T06:46:35.286Z,545.15
2023-03-04T06:49:04.033Z,570.05
2023-03-04T06:51:32.490Z,511.75
2023-03-04T06:54:00.950Z,494.20
2023-03-04T06:56:29.464Z,435.13
2023-03-04T06:58:58.055Z,533.38
2023-03-04T07:01:29.974Z,391.75
2023-03-04T07:03:59.696Z,354.67
2023-03-04T07:06:29.657Z,380.48
2023-03-04T07:08:58.209Z,343.95
2023-03-04T07:11:27.117Z,369.70
2023-03-04T07:13:55.701Z,441.17
2023-03-04T07:16:25.172Z,337.15
2023-03-04T07:18:55.108Z,326.17
2023-03-04T07:21:23.839Z,355.10
2023-03-04T07:23:52.461Z,363.50
2023-03-04T07:26:21.518Z,309.27
2023-03-04T07:28:54.889Z,382.45
2023-03-04T07:31:27.633Z,319.90
2023-03-04T07:33:59.258Z,454.35
2023-03-04T07:36:28.267Z,384.08
2023-03-04T07:38:57.090Z,276.08
2023-03-04T07:41:29.269Z,385.48
2023-03-04T07:43:58.405Z,368.50
2023-03-04T07:46:27.289Z,188.40
2023-03-04T07:48:58.058Z,167.30
2023-03-04T07:51:28.275Z,231.45
2023-03-04T07:53:59.468Z,232.10
2023-03-04T07:56:30.705Z,301.40
2023-03-04T07:58:59.804Z,294.23
2023-03-04T08:01:30.479Z,261.65
2023-03-04T08:04:00.946Z,268.13
2023-03-04T08:06:29.812Z,202.77
2023-03-04T08:08:59.580Z,293.50
2023-03-04T08:11:28.949Z,329.88
2023-03-04T08:13:57.714Z,244.65
2023-03-04T08:16:27.140Z,264.77
2023-03-04T08:18:57.823Z,410.42
2023-03-04T08:21:28.600Z,202.27
2023-03-04T08:23:58.489Z,119.10
2023-03-04T08:26:29.368Z,154.40
2023-03-04T08:28:59.130Z,135.45
2023-03-04T08:31:27.728Z,204.35
2023-03-04T08:33:56.577Z,182.00
2023-03-04T08:36:26.420Z,204.95
2023-03-04T08:38:54.869Z,189.88
2023-03-04T08:41:25.585Z,281.13
2023-03-04T08:43:54.408Z,196.10
2023-03-04T08:46:23.202Z,176.82
2023-03-04T08:48:51.705Z,251.48
2023-03-04T08:51:20.454Z,147.93
2023-03-04T08:53:50.465Z,196.88
2023-03-04T08:56:19.579Z,191.13
2023-03-04T08:58:48.069Z,195.60
2023-03-04T09:01:17.297Z,173.48
2023-03-04T09:03:45.814Z,141.45
2023-03-04T09:06:16.293Z,206.60
2023-03-04T09:08:45.042Z,259.35
2023-03-04T09:11:15.682Z,209.32
2023-03-04T09:13:44.457Z,258.17
2023-03-04T09:16:14.366Z,190.43
2023-03-04T09:18:43.969Z,188.43
2023-03-04T09:21:12.879Z,183.38
2023-03-04T09:23:41.616Z,129.95
2023-03-04T09:26:20.777Z,188.10
2023-03-04T09:28:52.600Z,499.05
2023-03-04T09:31:22.193Z,166.80
2023-03-04T09:33:55.364Z,181.38
2023-03-04T09:36:28.799Z,159.85
2023-03-04T09:39:04.884Z,236.43
2023-03-04T09:41:48.627Z,197.18
2023-03-04T09:44:26.881Z,239.57
2023-03-04T09:47:02.167Z,282.55
2023-03-04T09:49:32.285Z,327.80
2023-03-04T09:52:10.714Z,157.95
2023-03-04T09:54:56.757Z,289.00
2023-03-04T09:57:52.995Z,188.43
2023-03-04T10:00:25.471Z,139.00
2023-03-04T10:03:12.770Z,257.30
2023-03-04T10:05:48.694Z,272.88
2023-03-04T10:08:38.312Z,166.45
2023-03-04T10:11:24.455Z,201.25
2023-03-04T10:14:01.081Z,245.65
2023-03-04T10:16:39.421Z,150.02
2023-03-04T10:19:24.931Z,269.77
2023-03-04T10:22:02.313Z,179.50
2023-03-04T10:24:34.631Z,95.70
2023-03-04T10:27:08.716Z,117.10
2023-03-04T10:29:38.899Z,120.70
2023-03-04T10:32:11.926Z,136.00
2023-03-04T10:34:59.125Z,192.35
2023-03-04T10:37:50.017Z,160.35
2023-03-04T10:40:32.315Z,222.60
2023-03-04T10:43:07.410Z,160.80
2023-03-04T10:45:44.809Z,117.72
2023-03-04T10:48:24.732Z,161.10
2023-03-04T10:50:53.478Z,223.13
2023-03-04T10:53:33.543Z,107.93
2023-03-04T10:56:03.353Z,158.45
2023-03-04T10:58:32.265Z,132.10
2023-03-04T11:01:08.236Z,161.68
2023-03-04T11:03:39.577Z,218.80
2023-03-04T11:06:17.351Z,324.35
2023-03-04T11:08:47.961Z,426.52
2023-03-04T11:11:26.661Z,314.65
2023-03-04T11:14:00.821Z,182.40
2023-03-04T11:16:35.018Z,368.80
2023-03-04T11:19:07.357Z,431.75
2023-03-04T11:21:40.338Z,401.15
2023-03-04T11:24:27.457Z,291.13
2023-03-04T11:27:00.519Z,288.20
2023-03-04T11:29:34.334Z,232.50
2023-03-04T11:32:10.339Z,360.95
2023-03-04T11:34:49.503Z,179.40
2023-03-04T11:37:22.798Z,144.40
2023-03-04T11:39:54.424Z,317.80
2023-03-04T11:42:30.449Z,220.38
2023-03-04T11:44:59.092Z,146.60
2023-03-04T11:47:48.953Z,317.45
2023-03-04T11:50:29.060Z,181.82
2023-03-04T11:53:11.228Z,235.15
2023-03-04T11:55:44.643Z,232.40
2023-03-04T12:02:05.338Z,177.30
2023-03-04T12:04:48.571Z,146.13
2023-03-04T12:07:30.053Z,260.10
2023-03-04T12:10:07.791Z,245.57
2023-03-04T12:12:53.300Z,222.13
2023-03-04T12:15:26.290Z,115.82
2023-03-04T12:18:03.117Z,408.02
2023-03-04T12:20:57.636Z,318.42
2023-03-04T12:23:42.099Z,184.98
2023-03-04T12:26:15.947Z,210.85
2023-03-04T12:28:53.276Z,265.13
2023-03-04T12:31:37.627Z,133.05
2023-03-04T12:34:34.713Z,291.33
2023-03-04T12:37:18.968Z,393.10
2023-03-04T12:39:59.254Z,185.52
2023-03-04T12:42:36.638Z,191.45
2023-03-04T12:45:14.606Z,255.85
2023-03-04T12:47:50.194Z,234.18
2023-03-04T12:50:33.057Z,342.67
2023-03-04T12:53:14.341Z,243.52
2023-03-04T12:55:46.002Z,235.75
2023-03-04T12:58:21.874Z,249.63
2023-03-04T13:01:02.377Z,156.38
2023-03-04T13:03:46.157Z,368.25
2023-03-04T13:06:28.077Z,217.05
2023-03-04T13:09:08.284Z,342.30
2023-03-04T13:12:04.126Z,190.43
2023-03-04T13:14:34.890Z,197.95
2023-03-04T13:17:19.590Z,153.18
2023-03-04T13:19:56.297Z,134.45
2023-03-04T13:22:53.495Z,126.75
2023-03-04T13:25:38.934Z,127.70
2023-03-04T13:28:25.584Z,237.68
2023-03-04T13:31:26.613Z,281.58
2023-03-04T13:34:03.430Z,155.95
2023-03-04T13:36:51.813Z,229.50
2023-03-04T13:39:33.394Z,125.18
2023-03-04T13:42:21.898Z,213.75
2023-03-04T13:45:01.467Z,180.95
2023-03-04T13:47:45.924Z,139.93
2023-03-04T13:50:40.332Z,338.05
2023-03-04T13:53:40.259Z,384.63
2023-03-04T13:56:39.496Z,130.65
2023-03-04T13:59:33.682Z,179.20
2023-03-04T14:02:09.872Z,203.27
2023-03-04T14:04:39.801Z,474.25
2023-03-04T14:07:24.369Z,136.57
2023-03-04T14:10:00.507Z,208.38
2023-03-04T14:12:31.012Z,153.77
2023-03-04T14:15:02.148Z,181.90
2023-03-04T14:17:33.405Z,275.92
2023-03-04T14:20:03.494Z,138.02
2023-03-04T14:22:33.792Z,166.75
2023-03-04T14:25:04.885Z,272.67
2023-03-04T14:27:36.257Z,121.18
2023-03-04T14:30:09.048Z,126.15
2023-03-04T14:32:37.712Z,232.13
2023-03-04T14:35:08.930Z,123.53
2023-03-04T14:37:44.569Z,231.90
2023-03-04T14:40:21.529Z,121.80
2023-03-04T14:42:53.700Z,123.75
2023-03-04T14:45:24.700Z,113.03
2023-03-04T14:47:55.665Z,146.57
2023-03-04T14:50:24.764Z,141.73
2023-03-04T14:53:06.200Z,198.70
2023-03-04T14:55:34.833Z,121.18
2023-03-04T14:58:11.936Z,120.93
2023-03-04T15:00:43.147Z,129.93
2023-03-04T15:03:22.046Z,232.18
2023-03-04T15:05:52.782Z,311.40
2023-03-04T15:08:27.547Z,195.70
2023-03-04T15:13:39.689Z,133.07
2023-03-04T15:16:10.197Z,116.65
2023-03-04T15:18:40.567Z,104.22
2023-03-04T15:21:32.932Z,152.52
2023-03-04T15:24:22.695Z,169.85
2023-03-04T15:26:51.582Z,126.75
2023-03-04T15:29:28.252Z,174.07
2023-03-04T15:32:04.759Z,128.02
2023-03-04T15:34:33.238Z,113.07
2023-03-04T15:37:02.771Z,245.70
2023-03-04T15:39:35.649Z,176.80
2023-03-04T15:42:04.532Z,190.57
2023-03-04T15:44:46.542Z,104.55
2023-03-04T15:47:23.489Z,269.73
2023-03-04T15:53:15.155Z,102.57
2023-03-04T16:02:07.177Z,179.85
2023-03-04T16:04:45.234Z,182.10
2023-03-04T16:07:50.180Z,123.35
2023-03-04T16:10:34.359Z,170.45
2023-03-04T16:13:03.153Z,139.43
2023-03-04T16:15:32.628Z,123.78
2023-03-04T16:18:04.064Z,249.57
2023-03-04T16:21:06.149Z,127.78
2023-03-04T16:23:40.669Z,325.88
2023-03-04T16:26:14.477Z,142.43
2023-03-04T16:28:47.171Z,131.98
2023-03-04T16:31:16.867Z,121.72
2023-03-04T16:33:46.626Z,115.55
2023-03-04T16:36:20.170Z,144.60
2023-03-04T16:38:49.795Z,233.57
2023-03-04T16:41:22.159Z,137.50
2023-03-04T16:43:51.909Z,305.58
2023-03-04T16:46:21.403Z,117.20
2023-03-04T16:48:52.644Z,156.65
2023-03-04T16:51:24.036Z,130.68
2023-03-04T16:53:54.865Z,133.75
2023-03-04T16:56:23.872Z,193.57
2023-03-04T16:58:58.887Z,389.00
2023-03-04T17:01:29.030Z,359.80
2023-03-04T17:03:57.918Z,312.73
2023-03-04T17:06:30.974Z,302.55
2023-03-04T17:09:00.948Z,397.15
2023-03-04T17:11:29.356Z,228.93
2023-03-04T17:13:57.949Z,282.40
2023-03-04T17:16:26.609Z,342.25
2023-03-04T17:18:55.392Z,403.73
2023-03-04T17:21:26.242Z,317.38
2023-03-04T17:23:56.610Z,282.02
2023-03-04T17:26:25.320Z,227.38
2023-03-04T17:28:54.461Z,250.32
2023-03-04T17:31:33.481Z,229.45
2023-03-04T17:34:10.642Z,254.02
2023-03-04T17:36:43.781Z,446.52
2023-03-04T17:39:21.286Z,209.27
2023-03-04T17:42:01.209Z,312.45
2023-03-04T17:44:37.771Z,353.27
2023-03-04T17:47:08.407Z,109.63
2023-03-04T17:49:37.966Z,150.43
2023-03-04T17:52:07.549Z,344.58
2023-03-04T17:54:44.572Z,189.38
2023-03-04T17:57:13.797Z,296.95
2023-03-04T17:59:49.943Z,262.80
2023-03-04T18:02:43.088Z,268.48
2023-03-04T18:05:11.986Z,168.77
2023-03-04T18:07:40.563Z,169.43
2023-03-04T18:10:20.414Z,98.07
2023-03-04T18:12:55.127Z,270.20
2023-03-04T18:18:07.362Z,149.07
2023-03-04T18:20:36.438Z,88.13
2023-03-04T18:23:21.415Z,247.60
2023-03-04T18:41:58.165Z,252.55
2023-03-04T18:44:27.187Z,105.53
2023-03-04T18:46:58.440Z,294.38
2023-03-04T18:49:27.261Z,335.42
2023-03-04T18:51:56.252Z,368.27
2023-03-04T18:54:24.912Z,313.33
2023-03-04T18:56:55.746Z,255.02
2023-03-04T19:00:00.675Z,424.13
2023-03-04T19:02:52.404Z,243.07
2023-03-04T19:05:22.478Z,301.10
2023-03-04T19:07:52.077Z,198.45
2023-03-04T19:10:21.630Z,201.82
2023-03-04T19:12:50.902Z,181.23
2023-03-04T19:15:25.038Z,262.75
2023-03-04T19:17:54.592Z,112.85
2023-03-04T19:20:23.623Z,212.25
2023-03-04T19:22:52.843Z,280.35
2023-03-04T19:25:21.981Z,389.00
2023-03-04T19:27:52.135Z,381.23
2023-03-04T19:30:22.933Z,359.08
2023-03-04T19:32:51.524Z,266.75
2023-03-04T19:35:22.154Z,186.43
2023-03-04T19:37:51.062Z,425.55
2023-03-04T19:40:25.371Z,104.63
2023-03-04T19:42:55.784Z,149.73
2023-03-04T19:45:27.886Z,256.10
2023-03-04T19:47:57.210Z,168.93
2023-03-04T19:50:26.895Z,284.35
2023-03-04T19:52:55.671Z,356.65
2023-03-04T19:55:25.242Z,311.52
2023-03-04T19:57:54.316Z,233.38
2023-03-04T20:00:24.985Z,301.25
2023-03-04T20:02:53.933Z,314.70
2023-03-04T20:05:23.371Z,294.13
2023-03-04T20:07:52.241Z,194.20
2023-03-04T20:10:21.177Z,226.75
2023-03-04T20:12:49.913Z,276.75
2023-03-04T20:15:18.952Z,324.38
2023-03-04T20:17:52.121Z,287.10
2023-03-04T20:20:21.200Z,266.73
2023-03-04T20:25:57.403Z,153.65
2023-03-04T20:28:33.751Z,195.30
2023-03-04T20:31:27.072Z,268.10
2023-03-04T20:34:46.209Z,137.38
2023-03-04T20:37:14.805Z,265.55
2023-03-04T20:39:48.151Z,296.88
2023-03-04T20:42:23.388Z,344.83
2023-03-04T20:44:51.918Z,275.42
2023-03-04T20:47:21.063Z,310.90
2023-03-04T20:49:54.966Z,327.52
2023-03-04T20:52:58.351Z,268.15
2023-03-04T20:55:15.050Z,296.40
2023-03-04T20:57:43.564Z,322.27
2023-03-04T21:00:13.207Z,278.33
2023-03-04T21:02:41.691Z,227.85
2023-03-04T21:05:12.039Z,363.65
2023-03-04T21:07:40.396Z,108.65
2023-03-04T21:10:14.013Z,314.10
2023-03-04T21:12:43.191Z,301.42
2023-03-04T21:15:13.296Z,309.05
2023-03-04T21:17:42.051Z,312.30
2023-03-04T21:20:15.198Z,272.75
2023-03-04T21:22:43.593Z,213.88
2023-03-04T21:25:12.213Z,165.10
2023-03-04T21:27:42.796Z,314.55
2023-03-04T21:30:12.807Z,215.15
2023-03-04T21:32:41.376Z,186.68
2023-03-04T21:35:14.345Z,250.10
2023-03-04T21:37:43.138Z,320.52
2023-03-04T21:40:14.110Z,199.30
2023-03-04T21:42:42.682Z,210.38
2023-03-04T21:45:12.142Z,350.02
2023-03-04T21:47:48.435Z,340.52
2023-03-04T21:50:18.783Z,350.35
2023-03-04T21:52:47.683Z,162.80
2023-03-04T21:55:19.455Z,160.45
2023-03-04T21:57:48.305Z,331.85
2023-03-04T22:00:17.294Z,350.80
2023-03-04T22:02:47.046Z,326.65
2023-03-04T22:05:19.012Z,149.95
2023-03-04T22:07:48.017Z,182.23
2023-03-04T22:10:17.853Z,274.75
2023-03-04T22:12:46.579Z,347.30
2023-03-04T22:15:15.416Z,332.80
2023-03-04T22:17:45.574Z,200.23
2023-03-04T22:20:15.536Z,291.90
2023-03-04T22:22:45.493Z,292.52
2023-03-04T22:25:13.951Z,252.05
2023-03-04T22:27:42.325Z,332.35
2023-03-04T22:30:12.023Z,200.93
2023-03-04T22:32:40.634Z,380.85
2023-03-04T22:35:10.692Z,306.08
2023-03-04T22:37:39.143Z,136.00
2023-03-04T22:40:11.505Z,238.75
2023-03-04T22:42:39.931Z,243.02
2023-03-04T22:45:09.672Z,348.08
2023-03-04T22:47:38.253Z,194.05
2023-03-04T22:50:07.996Z,273.98
2023-03-04T22:52:36.465Z,320.88
2023-03-04T22:55:05.284Z,331.65
2023-03-04T22:57:35.428Z,312.13
2023-03-04T23:00:06.365Z,279.83
2023-03-04T23:02:34.914Z,283.33
2023-03-04T23:05:03.529Z,192.07
2023-03-04T23:07:32.118Z,312.88
2023-03-04T23:10:00.610Z,335.90
2023-03-04T23:12:29.146Z,329.13
2023-03-04T23:14:59.882Z,335.15
2023-03-04T23:17:28.596Z,318.67
2023-03-04T23:19:57.038Z,278.55
2023-03-04T23:22:25.485Z,354.95
2023-03-04T23:24:53.857Z,289.10
2023-03-04T23:27:22.261Z,286.73
2023-03-04T23:29:50.904Z,320.67
2023-03-04T23:32:20.704Z,311.40
2023-03-04T23:34:53.132Z,336.60
2023-03-04T23:37:22.530Z,304.40
2023-03-04T23:39:51.146Z,280.08
2023-03-04T23:42:19.500Z,273.10
2023-03-04T23:44:47.877Z,406.33
2023-03-04T23:47:16.526Z,378.95
2023-03-04T23:49:46.352Z,299.90
2023-03-04T23:52:14.917Z,311.92
2023-03-04T23:54:43.486Z,296.20
2023-03-04T23:57:11.883Z,367.88
2023-03-04T23:59:40.272Z,309.95
